sensor_id;sensor_type;location;lat;lon;timestamp;P1;durP1;ratioP1;P2;durP2;ratioP2
70800;SDS011;59616;52.170;5.386;2023-04-12T00:01:50;8.10;;;1.75;;
70800;SDS011;59616;52.170;5.386;2023-04-12T00:04:17;7.30;;;1.48;;
70800;SDS011;59616;52.170;5.386;2023-04-12T00:06:48;8.90;;;1.80;;
70800;SDS011;59616;52.170;5.386;2023-04-12T00:09:15;8.00;;;1.90;;
70800;SDS011;59616;52.170;5.386;2023-04-12T00:11:42;5.85;;;1.30;;
70800;SDS011;59616;52.170;5.386;2023-04-12T00:14:09;5.50;;;1.38;;
70800;SDS011;59616;52.170;5.386;2023-04-12T00:16:36;5.15;;;1.88;;
70800;SDS011;59616;52.170;5.386;2023-04-12T00:19:04;6.13;;;1.83;;
70800;SDS011;59616;52.170;5.386;2023-04-12T00:21:32;6.57;;;1.55;;
70800;SDS011;59616;52.170;5.386;2023-04-12T00:23:59;9.60;;;1.70;;
70800;SDS011;59616;52.170;5.386;2023-04-12T00:26:26;7.75;;;1.63;;
70800;SDS011;59616;52.170;5.386;2023-04-12T00:28:53;8.15;;;1.60;;
70800;SDS011;59616;52.170;5.386;2023-04-12T00:31:21;5.28;;;1.30;;
70800;SDS011;59616;52.170;5.386;2023-04-12T00:33:48;4.93;;;1.20;;
70800;SDS011;59616;52.170;5.386;2023-04-12T00:36:16;4.78;;;1.30;;
70800;SDS011;59616;52.170;5.386;2023-04-12T00:38:43;7.97;;;1.35;;
70800;SDS011;59616;52.170;5.386;2023-04-12T00:41:13;5.72;;;1.30;;
70800;SDS011;59616;52.170;5.386;2023-04-12T00:43:40;4.03;;;0.93;;
70800;SDS011;59616;52.170;5.386;2023-04-12T00:46:08;5.43;;;1.48;;
70800;SDS011;59616;52.170;5.386;2023-04-12T00:48:37;5.70;;;1.10;;
70800;SDS011;59616;52.170;5.386;2023-04-12T00:51:05;5.05;;;1.05;;
70800;SDS011;59616;52.170;5.386;2023-04-12T00:53:33;3.20;;;0.90;;
70800;SDS011;59616;52.170;5.386;2023-04-12T00:56:00;3.33;;;0.98;;
70800;SDS011;59616;52.170;5.386;2023-04-12T00:58:28;3.67;;;1.00;;
70800;SDS011;59616;52.170;5.386;2023-04-12T01:00:56;3.67;;;1.23;;
70800;SDS011;59616;52.170;5.386;2023-04-12T01:03:24;2.67;;;1.08;;
70800;SDS011;59616;52.170;5.386;2023-04-12T01:06:08;4.50;;;1.13;;
70800;SDS011;59616;52.170;5.386;2023-04-12T01:11:37;7.88;;;1.52;;
70800;SDS011;59616;52.170;5.386;2023-04-12T01:14:16;2.60;;;0.98;;
70800;SDS011;59616;52.170;5.386;2023-04-12T01:16:52;7.57;;;1.63;;
70800;SDS011;59616;52.170;5.386;2023-04-12T01:23:02;5.78;;;1.50;;
70800;SDS011;59616;52.170;5.386;2023-04-12T01:28:10;7.70;;;1.70;;
70800;SDS011;59616;52.170;5.386;2023-04-12T01:30:40;6.38;;;1.70;;
70800;SDS011;59616;52.170;5.386;2023-04-12T01:33:09;5.50;;;1.58;;
70800;SDS011;59616;52.170;5.386;2023-04-12T01:35:37;6.70;;;1.52;;
70800;SDS011;59616;52.170;5.386;2023-04-12T01:38:06;6.13;;;1.50;;
70800;SDS011;59616;52.170;5.386;2023-04-12T01:40:35;4.22;;;1.38;;
70800;SDS011;59616;52.170;5.386;2023-04-12T01:43:09;5.50;;;1.50;;
70800;SDS011;59616;52.170;5.386;2023-04-12T01:45:37;5.90;;;1.23;;
70800;SDS011;59616;52.170;5.386;2023-04-12T01:48:06;6.75;;;1.50;;
70800;SDS011;59616;52.170;5.386;2023-04-12T01:53:10;4.32;;;1.08;;
70800;SDS011;59616;52.170;5.386;2023-04-12T01:55:38;6.05;;;1.42;;
70800;SDS011;59616;52.170;5.386;2023-04-12T01:58:09;6.47;;;1.30;;
70800;SDS011;59616;52.170;5.386;2023-04-12T02:00:37;3.97;;;1.20;;
70800;SDS011;59616;52.170;5.386;2023-04-12T02:03:04;5.68;;;1.40;;
70800;SDS011;59616;52.170;5.386;2023-04-12T02:05:32;5.80;;;1.25;;
70800;SDS011;59616;52.170;5.386;2023-04-12T02:08:01;6.95;;;1.45;;
70800;SDS011;59616;52.170;5.386;2023-04-12T02:10:29;10.00;;;1.77;;
70800;SDS011;59616;52.170;5.386;2023-04-12T02:12:57;6.28;;;1.40;;
70800;SDS011;59616;52.170;5.386;2023-04-12T02:15:25;7.05;;;1.48;;
70800;SDS011;59616;52.170;5.386;2023-04-12T02:17:52;4.78;;;1.20;;
70800;SDS011;59616;52.170;5.386;2023-04-12T02:20:21;7.50;;;1.58;;
70800;SDS011;59616;52.170;5.386;2023-04-12T02:22:49;5.43;;;1.45;;
70800;SDS011;59616;52.170;5.386;2023-04-12T02:25:19;6.63;;;1.65;;
70800;SDS011;59616;52.170;5.386;2023-04-12T02:27:46;4.88;;;1.50;;
70800;SDS011;59616;52.170;5.386;2023-04-12T02:30:14;7.20;;;1.55;;
70800;SDS011;59616;52.170;5.386;2023-04-12T02:32:44;5.32;;;1.40;;
70800;SDS011;59616;52.170;5.386;2023-04-12T02:35:18;4.75;;;1.30;;
70800;SDS011;59616;52.170;5.386;2023-04-12T02:37:51;5.68;;;1.70;;
70800;SDS011;59616;52.170;5.386;2023-04-12T02:40:19;7.53;;;1.50;;
70800;SDS011;59616;52.170;5.386;2023-04-12T02:42:47;5.82;;;1.70;;
70800;SDS011;59616;52.170;5.386;2023-04-12T02:45:14;5.10;;;1.30;;
70800;SDS011;59616;52.170;5.386;2023-04-12T02:47:42;5.65;;;1.40;;
70800;SDS011;59616;52.170;5.386;2023-04-12T02:50:10;4.75;;;1.38;;
70800;SDS011;59616;52.170;5.386;2023-04-12T02:52:48;4.28;;;1.35;;
70800;SDS011;59616;52.170;5.386;2023-04-12T02:55:15;4.32;;;1.10;;
70800;SDS011;59616;52.170;5.386;2023-04-12T02:57:45;9.25;;;1.83;;
70800;SDS011;59616;52.170;5.386;2023-04-12T03:00:14;5.97;;;1.25;;
70800;SDS011;59616;52.170;5.386;2023-04-12T03:02:45;5.68;;;1.50;;
70800;SDS011;59616;52.170;5.386;2023-04-12T03:05:18;6.35;;;1.42;;
70800;SDS011;59616;52.170;5.386;2023-04-12T03:07:46;4.90;;;0.93;;
70800;SDS011;59616;52.170;5.386;2023-04-12T03:10:17;5.75;;;1.38;;
70800;SDS011;59616;52.170;5.386;2023-04-12T03:12:52;3.75;;;1.08;;
70800;SDS011;59616;52.170;5.386;2023-04-12T03:15:19;6.65;;;1.45;;
70800;SDS011;59616;52.170;5.386;2023-04-12T03:17:50;8.32;;;1.70;;
70800;SDS011;59616;52.170;5.386;2023-04-12T03:20:20;6.50;;;1.48;;
70800;SDS011;59616;52.170;5.386;2023-04-12T03:23:10;4.00;;;1.30;;
70800;SDS011;59616;52.170;5.386;2023-04-12T03:25:42;4.90;;;1.40;;
70800;SDS011;59616;52.170;5.386;2023-04-12T03:28:30;5.38;;;1.30;;
70800;SDS011;59616;52.170;5.386;2023-04-12T03:30:58;5.50;;;1.40;;
70800;SDS011;59616;52.170;5.386;2023-04-12T03:33:35;5.95;;;1.50;;
70800;SDS011;59616;52.170;5.386;2023-04-12T03:36:04;5.53;;;1.50;;
70800;SDS011;59616;52.170;5.386;2023-04-12T03:38:33;5.93;;;1.30;;
70800;SDS011;59616;52.170;5.386;2023-04-12T03:41:01;6.80;;;1.40;;
70800;SDS011;59616;52.170;5.386;2023-04-12T03:43:35;4.80;;;1.30;;
70800;SDS011;59616;52.170;5.386;2023-04-12T03:46:08;9.10;;;1.50;;
70800;SDS011;59616;52.170;5.386;2023-04-12T03:48:35;8.00;;;1.40;;
70800;SDS011;59616;52.170;5.386;2023-04-12T03:51:03;5.45;;;1.25;;
70800;SDS011;59616;52.170;5.386;2023-04-12T03:53:41;4.35;;;1.27;;
70800;SDS011;59616;52.170;5.386;2023-04-12T03:56:12;4.00;;;1.27;;
70800;SDS011;59616;52.170;5.386;2023-04-12T03:58:43;3.63;;;1.40;;
70800;SDS011;59616;52.170;5.386;2023-04-12T04:01:11;6.75;;;1.50;;
70800;SDS011;59616;52.170;5.386;2023-04-12T04:03:40;5.45;;;1.40;;
70800;SDS011;59616;52.170;5.386;2023-04-12T04:06:17;4.95;;;1.75;;
70800;SDS011;59616;52.170;5.386;2023-04-12T04:08:45;5.63;;;1.38;;
70800;SDS011;59616;52.170;5.386;2023-04-12T04:11:12;4.57;;;1.40;;
70800;SDS011;59616;52.170;5.386;2023-04-12T04:13:43;4.40;;;1.50;;
70800;SDS011;59616;52.170;5.386;2023-04-12T04:16:16;5.55;;;1.80;;
70800;SDS011;59616;52.170;5.386;2023-04-12T04:18:53;5.38;;;1.40;;
70800;SDS011;59616;52.170;5.386;2023-04-12T04:21:22;4.88;;;1.45;;
70800;SDS011;59616;52.170;5.386;2023-04-12T04:23:54;5.22;;;1.50;;
70800;SDS011;59616;52.170;5.386;2023-04-12T04:26:23;3.45;;;1.40;;
70800;SDS011;59616;52.170;5.386;2023-04-12T04:29:02;5.20;;;1.42;;
70800;SDS011;59616;52.170;5.386;2023-04-12T04:31:34;5.05;;;1.42;;
70800;SDS011;59616;52.170;5.386;2023-04-12T04:34:04;7.68;;;1.55;;
70800;SDS011;59616;52.170;5.386;2023-04-12T04:36:37;4.63;;;1.35;;
70800;SDS011;59616;52.170;5.386;2023-04-12T04:39:04;6.45;;;1.50;;
70800;SDS011;59616;52.170;5.386;2023-04-12T04:41:39;4.80;;;1.48;;
70800;SDS011;59616;52.170;5.386;2023-04-12T04:44:15;6.60;;;1.48;;
70800;SDS011;59616;52.170;5.386;2023-04-12T04:46:51;5.40;;;1.80;;
70800;SDS011;59616;52.170;5.386;2023-04-12T04:49:18;5.38;;;1.75;;
70800;SDS011;59616;52.170;5.386;2023-04-12T04:51:45;4.90;;;1.45;;
70800;SDS011;59616;52.170;5.386;2023-04-12T04:54:13;6.22;;;1.58;;
70800;SDS011;59616;52.170;5.386;2023-04-12T04:56:42;4.90;;;1.70;;
70800;SDS011;59616;52.170;5.386;2023-04-12T04:59:12;4.43;;;1.58;;
70800;SDS011;59616;52.170;5.386;2023-04-12T05:01:39;5.13;;;1.63;;
70800;SDS011;59616;52.170;5.386;2023-04-12T05:04:08;4.22;;;1.33;;
70800;SDS011;59616;52.170;5.386;2023-04-12T05:06:35;5.63;;;1.58;;
70800;SDS011;59616;52.170;5.386;2023-04-12T05:09:04;5.07;;;1.73;;
70800;SDS011;59616;52.170;5.386;2023-04-12T05:11:37;3.50;;;1.58;;
70800;SDS011;59616;52.170;5.386;2023-04-12T05:14:09;5.28;;;1.50;;
70800;SDS011;59616;52.170;5.386;2023-04-12T05:16:38;4.50;;;1.50;;
70800;SDS011;59616;52.170;5.386;2023-04-12T05:19:05;4.25;;;1.40;;
70800;SDS011;59616;52.170;5.386;2023-04-12T05:21:33;5.45;;;1.70;;
70800;SDS011;59616;52.170;5.386;2023-04-12T05:24:00;6.07;;;1.38;;
70800;SDS011;59616;52.170;5.386;2023-04-12T05:26:30;4.72;;;1.48;;
70800;SDS011;59616;52.170;5.386;2023-04-12T05:29:01;4.45;;;1.60;;
70800;SDS011;59616;52.170;5.386;2023-04-12T05:31:28;4.95;;;1.80;;
70800;SDS011;59616;52.170;5.386;2023-04-12T05:33:58;4.43;;;1.50;;
70800;SDS011;59616;52.170;5.386;2023-04-12T05:36:30;5.70;;;1.70;;
70800;SDS011;59616;52.170;5.386;2023-04-12T05:39:00;4.68;;;1.55;;
70800;SDS011;59616;52.170;5.386;2023-04-12T05:41:27;7.25;;;1.77;;
70800;SDS011;59616;52.170;5.386;2023-04-12T05:43:56;5.78;;;1.98;;
70800;SDS011;59616;52.170;5.386;2023-04-12T05:46:23;3.63;;;1.50;;
70800;SDS011;59616;52.170;5.386;2023-04-12T05:48:50;4.75;;;1.50;;
70800;SDS011;59616;52.170;5.386;2023-04-12T05:51:17;5.45;;;1.60;;
70800;SDS011;59616;52.170;5.386;2023-04-12T05:53:59;5.63;;;1.92;;
70800;SDS011;59616;52.170;5.386;2023-04-12T05:56:31;5.78;;;1.70;;
70800;SDS011;59616;52.170;5.386;2023-04-12T05:58:59;4.95;;;1.63;;
70800;SDS011;59616;52.170;5.386;2023-04-12T06:01:27;6.10;;;1.80;;
70800;SDS011;59616;52.170;5.386;2023-04-12T06:03:58;3.72;;;1.52;;
70800;SDS011;59616;52.170;5.386;2023-04-12T06:06:27;4.25;;;1.50;;
70800;SDS011;59616;52.170;5.386;2023-04-12T06:08:57;5.47;;;1.70;;
70800;SDS011;59616;52.170;5.386;2023-04-12T06:11:27;4.60;;;1.52;;
70800;SDS011;59616;52.170;5.386;2023-04-12T06:13:55;3.70;;;1.23;;
70800;SDS011;59616;52.170;5.386;2023-04-12T06:16:22;3.17;;;1.50;;
70800;SDS011;59616;52.170;5.386;2023-04-12T06:18:50;4.25;;;1.50;;
70800;SDS011;59616;52.170;5.386;2023-04-12T06:21:17;5.32;;;1.48;;
70800;SDS011;59616;52.170;5.386;2023-04-12T06:23:44;4.38;;;1.50;;
70800;SDS011;59616;52.170;5.386;2023-04-12T06:26:12;5.15;;;1.90;;
70800;SDS011;59616;52.170;5.386;2023-04-12T06:28:39;4.82;;;1.55;;
70800;SDS011;59616;52.170;5.386;2023-04-12T06:31:06;4.90;;;1.70;;
70800;SDS011;59616;52.170;5.386;2023-04-12T06:33:36;7.45;;;1.67;;
70800;SDS011;59616;52.170;5.386;2023-04-12T06:36:06;5.75;;;1.80;;
70800;SDS011;59616;52.170;5.386;2023-04-12T06:38:34;4.18;;;1.65;;
70800;SDS011;59616;52.170;5.386;2023-04-12T06:41:02;6.60;;;1.90;;
70800;SDS011;59616;52.170;5.386;2023-04-12T06:43:29;4.28;;;1.60;;
70800;SDS011;59616;52.170;5.386;2023-04-12T06:45:56;3.47;;;1.52;;
70800;SDS011;59616;52.170;5.386;2023-04-12T06:48:24;4.53;;;1.60;;
70800;SDS011;59616;52.170;5.386;2023-04-12T06:50:51;4.63;;;1.75;;
70800;SDS011;59616;52.170;5.386;2023-04-12T06:53:18;4.97;;;1.65;;
70800;SDS011;59616;52.170;5.386;2023-04-12T06:55:45;5.28;;;1.88;;
70800;SDS011;59616;52.170;5.386;2023-04-12T06:58:13;4.75;;;1.73;;
70800;SDS011;59616;52.170;5.386;2023-04-12T07:00:40;5.95;;;1.95;;
70800;SDS011;59616;52.170;5.386;2023-04-12T07:03:07;7.35;;;1.90;;
70800;SDS011;59616;52.170;5.386;2023-04-12T07:05:38;5.32;;;2.00;;
70800;SDS011;59616;52.170;5.386;2023-04-12T07:08:06;6.60;;;1.80;;
70800;SDS011;59616;52.170;5.386;2023-04-12T07:10:34;5.88;;;1.92;;
70800;SDS011;59616;52.170;5.386;2023-04-12T07:13:01;6.28;;;2.17;;
70800;SDS011;59616;52.170;5.386;2023-04-12T07:15:32;6.65;;;2.40;;
70800;SDS011;59616;52.170;5.386;2023-04-12T07:17:59;6.68;;;2.03;;
70800;SDS011;59616;52.170;5.386;2023-04-12T07:20:26;6.72;;;1.80;;
70800;SDS011;59616;52.170;5.386;2023-04-12T07:22:54;8.38;;;2.10;;
70800;SDS011;59616;52.170;5.386;2023-04-12T07:25:21;7.38;;;2.38;;
70800;SDS011;59616;52.170;5.386;2023-04-12T07:27:48;9.18;;;2.30;;
70800;SDS011;59616;52.170;5.386;2023-04-12T07:30:17;6.85;;;2.30;;
70800;SDS011;59616;52.170;5.386;2023-04-12T07:32:44;7.00;;;2.40;;
70800;SDS011;59616;52.170;5.386;2023-04-12T07:35:12;8.10;;;2.50;;
70800;SDS011;59616;52.170;5.386;2023-04-12T07:37:39;8.93;;;2.60;;
70800;SDS011;59616;52.170;5.386;2023-04-12T07:40:06;8.00;;;2.55;;
70800;SDS011;59616;52.170;5.386;2023-04-12T07:42:33;10.30;;;2.67;;
70800;SDS011;59616;52.170;5.386;2023-04-12T07:45:01;8.43;;;2.60;;
70800;SDS011;59616;52.170;5.386;2023-04-12T07:47:29;7.70;;;2.28;;
70800;SDS011;59616;52.170;5.386;2023-04-12T07:49:56;9.05;;;2.70;;
70800;SDS011;59616;52.170;5.386;2023-04-12T07:52:24;7.60;;;2.10;;
70800;SDS011;59616;52.170;5.386;2023-04-12T07:54:51;10.70;;;2.70;;
70800;SDS011;59616;52.170;5.386;2023-04-12T07:57:18;7.40;;;2.80;;
70800;SDS011;59616;52.170;5.386;2023-04-12T07:59:45;8.85;;;2.60;;
70800;SDS011;59616;52.170;5.386;2023-04-12T08:02:12;8.88;;;2.40;;
70800;SDS011;59616;52.170;5.386;2023-04-12T08:04:39;9.32;;;2.53;;
70800;SDS011;59616;52.170;5.386;2023-04-12T08:07:09;8.60;;;2.60;;
70800;SDS011;59616;52.170;5.386;2023-04-12T08:09:36;12.32;;;2.75;;
70800;SDS011;59616;52.170;5.386;2023-04-12T08:12:03;11.63;;;2.40;;
70800;SDS011;59616;52.170;5.386;2023-04-12T08:14:31;9.27;;;2.58;;
70800;SDS011;59616;52.170;5.386;2023-04-12T08:16:58;12.63;;;2.65;;
70800;SDS011;59616;52.170;5.386;2023-04-12T08:19:25;11.45;;;2.53;;
70800;SDS011;59616;52.170;5.386;2023-04-12T08:21:52;12.00;;;2.42;;
70800;SDS011;59616;52.170;5.386;2023-04-12T08:24:20;15.00;;;2.55;;
70800;SDS011;59616;52.170;5.386;2023-04-12T08:26:47;10.80;;;2.38;;
70800;SDS011;59616;52.170;5.386;2023-04-12T08:29:14;12.85;;;2.40;;
70800;SDS011;59616;52.170;5.386;2023-04-12T08:31:41;12.02;;;2.90;;
70800;SDS011;59616;52.170;5.386;2023-04-12T08:34:09;9.75;;;2.28;;
70800;SDS011;59616;52.170;5.386;2023-04-12T08:36:36;12.80;;;2.30;;
70800;SDS011;59616;52.170;5.386;2023-04-12T08:39:03;10.55;;;2.30;;
70800;SDS011;59616;52.170;5.386;2023-04-12T08:41:30;16.10;;;2.72;;
70800;SDS011;59616;52.170;5.386;2023-04-12T08:43:58;15.23;;;2.30;;
70800;SDS011;59616;52.170;5.386;2023-04-12T08:46:26;17.27;;;2.72;;
70800;SDS011;59616;52.170;5.386;2023-04-12T08:48:55;13.05;;;2.30;;
70800;SDS011;59616;52.170;5.386;2023-04-12T08:51:23;16.33;;;2.28;;
70800;SDS011;59616;52.170;5.386;2023-04-12T08:53:51;12.15;;;2.40;;
70800;SDS011;59616;52.170;5.386;2023-04-12T08:56:19;12.45;;;2.50;;
70800;SDS011;59616;52.170;5.386;2023-04-12T08:58:47;16.73;;;3.08;;
70800;SDS011;59616;52.170;5.386;2023-04-12T09:01:15;16.02;;;2.88;;
70800;SDS011;59616;52.170;5.386;2023-04-12T09:03:42;12.38;;;2.35;;
70800;SDS011;59616;52.170;5.386;2023-04-12T09:06:10;11.02;;;2.40;;
70800;SDS011;59616;52.170;5.386;2023-04-12T09:08:51;12.88;;;2.40;;
70800;SDS011;59616;52.170;5.386;2023-04-12T09:11:27;12.70;;;2.53;;
70800;SDS011;59616;52.170;5.386;2023-04-12T09:13:55;16.15;;;3.10;;
70800;SDS011;59616;52.170;5.386;2023-04-12T09:16:37;14.55;;;2.35;;
70800;SDS011;59616;52.170;5.386;2023-04-12T09:19:04;13.48;;;2.10;;
70800;SDS011;59616;52.170;5.386;2023-04-12T09:21:32;17.45;;;3.10;;
70800;SDS011;59616;52.170;5.386;2023-04-12T09:24:08;9.48;;;2.30;;
70800;SDS011;59616;52.170;5.386;2023-04-12T09:26:40;15.20;;;2.75;;
70800;SDS011;59616;52.170;5.386;2023-04-12T09:29:20;14.63;;;2.10;;
70800;SDS011;59616;52.170;5.386;2023-04-12T09:32:01;13.02;;;2.45;;
70800;SDS011;59616;52.170;5.386;2023-04-12T09:34:29;14.38;;;2.40;;
70800;SDS011;59616;52.170;5.386;2023-04-12T09:36:57;15.85;;;2.03;;
70800;SDS011;59616;52.170;5.386;2023-04-12T09:39:31;11.25;;;2.15;;
70800;SDS011;59616;52.170;5.386;2023-04-12T09:42:11;11.27;;;2.10;;
70800;SDS011;59616;52.170;5.386;2023-04-12T09:44:59;11.63;;;1.92;;
70800;SDS011;59616;52.170;5.386;2023-04-12T09:47:37;14.95;;;2.30;;
70800;SDS011;59616;52.170;5.386;2023-04-12T09:50:06;13.30;;;2.15;;
70800;SDS011;59616;52.170;5.386;2023-04-12T09:52:39;13.85;;;2.05;;
70800;SDS011;59616;52.170;5.386;2023-04-12T09:55:08;14.25;;;2.42;;
70800;SDS011;59616;52.170;5.386;2023-04-12T09:57:42;13.80;;;2.65;;
70800;SDS011;59616;52.170;5.386;2023-04-12T10:00:10;14.68;;;2.40;;
70800;SDS011;59616;52.170;5.386;2023-04-12T10:02:40;15.30;;;2.20;;
70800;SDS011;59616;52.170;5.386;2023-04-12T10:05:12;16.33;;;2.92;;
70800;SDS011;59616;52.170;5.386;2023-04-12T10:07:40;9.77;;;1.80;;
70800;SDS011;59616;52.170;5.386;2023-04-12T10:10:08;15.40;;;2.17;;
70800;SDS011;59616;52.170;5.386;2023-04-12T10:12:38;11.57;;;1.75;;
70800;SDS011;59616;52.170;5.386;2023-04-12T10:15:07;19.38;;;2.58;;
70800;SDS011;59616;52.170;5.386;2023-04-12T10:17:45;17.67;;;2.47;;
70800;SDS011;59616;52.170;5.386;2023-04-12T10:20:13;17.25;;;2.20;;
70800;SDS011;59616;52.170;5.386;2023-04-12T10:22:41;16.58;;;2.70;;
70800;SDS011;59616;52.170;5.386;2023-04-12T10:25:12;14.05;;;2.10;;
70800;SDS011;59616;52.170;5.386;2023-04-12T10:27:41;14.48;;;2.33;;
70800;SDS011;59616;52.170;5.386;2023-04-12T10:30:27;16.88;;;2.15;;
70800;SDS011;59616;52.170;5.386;2023-04-12T10:35:28;11.77;;;2.30;;
70800;SDS011;59616;52.170;5.386;2023-04-12T10:37:56;12.65;;;1.92;;
70800;SDS011;59616;52.170;5.386;2023-04-12T10:40:25;15.73;;;2.65;;
70800;SDS011;59616;52.170;5.386;2023-04-12T10:45:48;14.15;;;2.28;;
70800;SDS011;59616;52.170;5.386;2023-04-12T10:48:31;16.05;;;2.38;;
70800;SDS011;59616;52.170;5.386;2023-04-12T10:51:15;17.67;;;2.25;;
70800;SDS011;59616;52.170;5.386;2023-04-12T10:56:36;16.42;;;2.42;;
70800;SDS011;59616;52.170;5.386;2023-04-12T10:59:04;15.57;;;2.20;;
70800;SDS011;59616;52.170;5.386;2023-04-12T11:01:40;16.77;;;2.38;;
70800;SDS011;59616;52.170;5.386;2023-04-12T11:07:00;14.05;;;2.40;;
70800;SDS011;59616;52.170;5.386;2023-04-12T11:09:48;14.98;;;2.03;;
70800;SDS011;59616;52.170;5.386;2023-04-12T11:12:24;18.50;;;2.60;;
70800;SDS011;59616;52.170;5.386;2023-04-12T11:14:55;13.57;;;1.88;;
70800;SDS011;59616;52.170;5.386;2023-04-12T11:17:39;12.88;;;2.20;;
70800;SDS011;59616;52.170;5.386;2023-04-12T11:20:10;17.38;;;2.10;;
70800;SDS011;59616;52.170;5.386;2023-04-12T11:22:38;17.58;;;1.92;;
70800;SDS011;59616;52.170;5.386;2023-04-12T11:25:07;10.60;;;1.70;;
70800;SDS011;59616;52.170;5.386;2023-04-12T11:27:34;14.30;;;1.90;;
70800;SDS011;59616;52.170;5.386;2023-04-12T11:30:03;13.63;;;2.38;;
70800;SDS011;59616;52.170;5.386;2023-04-12T11:32:34;14.60;;;2.25;;
70800;SDS011;59616;52.170;5.386;2023-04-12T11:35:01;13.43;;;2.03;;
70800;SDS011;59616;52.170;5.386;2023-04-12T11:37:31;13.98;;;2.40;;
70800;SDS011;59616;52.170;5.386;2023-04-12T11:40:01;14.60;;;2.53;;
70800;SDS011;59616;52.170;5.386;2023-04-12T11:42:31;10.57;;;1.95;;
70800;SDS011;59616;52.170;5.386;2023-04-12T11:44:58;11.32;;;2.13;;
70800;SDS011;59616;52.170;5.386;2023-04-12T11:47:40;15.00;;;2.08;;
70800;SDS011;59616;52.170;5.386;2023-04-12T11:50:09;12.18;;;2.47;;
70800;SDS011;59616;52.170;5.386;2023-04-12T11:52:36;10.48;;;2.03;;
70800;SDS011;59616;52.170;5.386;2023-04-12T11:55:04;13.15;;;2.00;;
70800;SDS011;59616;52.170;5.386;2023-04-12T11:57:33;12.93;;;2.53;;
70800;SDS011;59616;52.170;5.386;2023-04-12T12:00:00;10.18;;;1.75;;
70800;SDS011;59616;52.170;5.386;2023-04-12T12:02:40;9.45;;;1.80;;
70800;SDS011;59616;52.170;5.386;2023-04-12T12:05:21;12.82;;;1.67;;
70800;SDS011;59616;52.170;5.386;2023-04-12T12:07:48;10.65;;;1.60;;
70800;SDS011;59616;52.170;5.386;2023-04-12T12:10:17;11.35;;;1.58;;
70800;SDS011;59616;52.170;5.386;2023-04-12T12:13:08;9.23;;;1.55;;
70800;SDS011;59616;52.170;5.386;2023-04-12T12:15:35;8.75;;;1.35;;
70800;SDS011;59616;52.170;5.386;2023-04-12T12:18:05;8.45;;;1.20;;
70800;SDS011;59616;52.170;5.386;2023-04-12T12:20:40;10.35;;;1.75;;
70800;SDS011;59616;52.170;5.386;2023-04-12T12:23:07;7.28;;;1.10;;
70800;SDS011;59616;52.170;5.386;2023-04-12T12:25:35;10.38;;;1.42;;
70800;SDS011;59616;52.170;5.386;2023-04-12T12:28:02;9.07;;;1.25;;
70800;SDS011;59616;52.170;5.386;2023-04-12T12:30:31;6.35;;;1.17;;
70800;SDS011;59616;52.170;5.386;2023-04-12T12:33:05;5.60;;;1.20;;
70800;SDS011;59616;52.170;5.386;2023-04-12T12:35:33;7.05;;;1.40;;
70800;SDS011;59616;52.170;5.386;2023-04-12T12:38:05;6.05;;;1.20;;
70800;SDS011;59616;52.170;5.386;2023-04-12T12:40:33;9.30;;;1.13;;
70800;SDS011;59616;52.170;5.386;2023-04-12T12:43:02;6.55;;;0.88;;
70800;SDS011;59616;52.170;5.386;2023-04-12T12:45:30;4.95;;;0.90;;
70800;SDS011;59616;52.170;5.386;2023-04-12T12:47:59;6.60;;;0.93;;
70800;SDS011;59616;52.170;5.386;2023-04-12T12:50:31;8.45;;;1.00;;
70800;SDS011;59616;52.170;5.386;2023-04-12T12:52:58;7.63;;;0.90;;
70800;SDS011;59616;52.170;5.386;2023-04-12T12:55:26;5.75;;;0.85;;
70800;SDS011;59616;52.170;5.386;2023-04-12T12:57:55;3.80;;;0.65;;
70800;SDS011;59616;52.170;5.386;2023-04-12T13:00:26;4.75;;;0.80;;
70800;SDS011;59616;52.170;5.386;2023-04-12T13:02:53;4.10;;;0.90;;
70800;SDS011;59616;52.170;5.386;2023-04-12T13:05:22;3.88;;;0.82;;
70800;SDS011;59616;52.170;5.386;2023-04-12T13:07:49;6.40;;;1.33;;
70800;SDS011;59616;52.170;5.386;2023-04-12T13:10:16;3.63;;;0.63;;
70800;SDS011;59616;52.170;5.386;2023-04-12T13:12:43;7.05;;;1.45;;
70800;SDS011;59616;52.170;5.386;2023-04-12T13:15:11;6.78;;;1.02;;
70800;SDS011;59616;52.170;5.386;2023-04-12T13:17:50;9.13;;;1.17;;
70800;SDS011;59616;52.170;5.386;2023-04-12T13:20:17;10.38;;;1.10;;
70800;SDS011;59616;52.170;5.386;2023-04-12T13:22:45;4.05;;;0.80;;
70800;SDS011;59616;52.170;5.386;2023-04-12T13:25:12;8.27;;;1.20;;
70800;SDS011;59616;52.170;5.386;2023-04-12T13:27:39;6.63;;;1.10;;
70800;SDS011;59616;52.170;5.386;2023-04-12T13:30:06;3.88;;;0.68;;
70800;SDS011;59616;52.170;5.386;2023-04-12T13:32:34;8.13;;;1.20;;
70800;SDS011;59616;52.170;5.386;2023-04-12T13:35:01;6.18;;;0.82;;
70800;SDS011;59616;52.170;5.386;2023-04-12T13:37:29;2.97;;;0.60;;
70800;SDS011;59616;52.170;5.386;2023-04-12T13:39:56;4.95;;;0.85;;
70800;SDS011;59616;52.170;5.386;2023-04-12T13:42:23;4.65;;;0.60;;
70800;SDS011;59616;52.170;5.386;2023-04-12T13:44:50;5.03;;;0.70;;
70800;SDS011;59616;52.170;5.386;2023-04-12T13:47:18;3.65;;;0.93;;
70800;SDS011;59616;52.170;5.386;2023-04-12T13:49:45;6.82;;;0.80;;
70800;SDS011;59616;52.170;5.386;2023-04-12T13:52:12;2.85;;;0.50;;
70800;SDS011;59616;52.170;5.386;2023-04-12T13:54:39;4.72;;;0.88;;
70800;SDS011;59616;52.170;5.386;2023-04-12T13:57:08;3.58;;;0.75;;
70800;SDS011;59616;52.170;5.386;2023-04-12T13:59:35;3.72;;;0.80;;
70800;SDS011;59616;52.170;5.386;2023-04-12T14:02:02;2.75;;;0.70;;
70800;SDS011;59616;52.170;5.386;2023-04-12T14:04:30;4.28;;;0.60;;
70800;SDS011;59616;52.170;5.386;2023-04-12T14:06:57;5.20;;;0.93;;
70800;SDS011;59616;52.170;5.386;2023-04-12T14:09:29;6.20;;;0.88;;
70800;SDS011;59616;52.170;5.386;2023-04-12T14:11:57;9.18;;;1.00;;
70800;SDS011;59616;52.170;5.386;2023-04-12T14:14:25;7.90;;;0.90;;
70800;SDS011;59616;52.170;5.386;2023-04-12T14:16:53;4.10;;;0.80;;
70800;SDS011;59616;52.170;5.386;2023-04-12T14:19:22;4.97;;;0.65;;
70800;SDS011;59616;52.170;5.386;2023-04-12T14:21:50;5.38;;;0.70;;
70800;SDS011;59616;52.170;5.386;2023-04-12T14:24:18;3.55;;;0.63;;
70800;SDS011;59616;52.170;5.386;2023-04-12T14:26:46;4.55;;;0.90;;
70800;SDS011;59616;52.170;5.386;2023-04-12T14:29:15;4.72;;;0.90;;
70800;SDS011;59616;52.170;5.386;2023-04-12T14:31:42;3.75;;;0.60;;
70800;SDS011;59616;52.170;5.386;2023-04-12T14:34:09;4.57;;;0.95;;
70800;SDS011;59616;52.170;5.386;2023-04-12T14:36:38;6.50;;;0.90;;
70800;SDS011;59616;52.170;5.386;2023-04-12T14:39:05;4.32;;;0.90;;
70800;SDS011;59616;52.170;5.386;2023-04-12T14:41:37;3.25;;;0.70;;
70800;SDS011;59616;52.170;5.386;2023-04-12T14:44:04;3.70;;;0.98;;
70800;SDS011;59616;52.170;5.386;2023-04-12T14:46:31;5.93;;;0.98;;
70800;SDS011;59616;52.170;5.386;2023-04-12T14:48:59;4.30;;;0.75;;
70800;SDS011;59616;52.170;5.386;2023-04-12T14:51:27;2.95;;;0.50;;
70800;SDS011;59616;52.170;5.386;2023-04-12T14:53:54;3.78;;;0.63;;
70800;SDS011;59616;52.170;5.386;2023-04-12T14:56:23;3.25;;;0.77;;
70800;SDS011;59616;52.170;5.386;2023-04-12T14:58:55;3.25;;;0.70;;
70800;SDS011;59616;52.170;5.386;2023-04-12T15:01:23;3.78;;;0.80;;
70800;SDS011;59616;52.170;5.386;2023-04-12T15:03:51;2.75;;;0.70;;
70800;SDS011;59616;52.170;5.386;2023-04-12T15:06:22;2.45;;;0.70;;
70800;SDS011;59616;52.170;5.386;2023-04-12T15:08:55;9.32;;;0.90;;
70800;SDS011;59616;52.170;5.386;2023-04-12T15:11:22;7.25;;;0.90;;
70800;SDS011;59616;52.170;5.386;2023-04-12T15:13:52;2.70;;;0.60;;
70800;SDS011;59616;52.170;5.386;2023-04-12T15:16:20;2.15;;;0.47;;
70800;SDS011;59616;52.170;5.386;2023-04-12T15:18:48;6.18;;;0.93;;
70800;SDS011;59616;52.170;5.386;2023-04-12T15:21:16;5.65;;;1.13;;